Time;durP1;ratioP1;P1;durP2;ratioP2;P2;SDS_P1;SDS_P2;PMS_P1;PMS_P2;Temp;Humidity;BMP_temperature;BMP_pressure;BME280_temperature;BME280_humidity;BME280_pressure;Samples;Min_cycle;Max_cycle;Signal;HPM_P1;HPM_P2
2022/12/10 00:01:51;;;;;;;230.00;96.32;;;13.20;99.90;;;;;;5076355;28;20081;-62
2022/12/10 00:04:18;;;;;;;188.63;85.05;;;13.00;99.90;;;;;;5076392;28;20033;-62
2022/12/10 00:06:45;;;;;;;182.75;85.88;;;12.90;99.90;;;;;;5076142;28;20417;-63
2022/12/10 00:09:18;;;;;;;179.57;82.97;;;12.90;99.90;;;;;;5080926;28;20020;-62
2022/12/10 00:11:44;;;;;;;193.55;88.32;;;12.90;99.90;;;;;;5096343;28;20027;-62
2022/12/10 00:14:12;;;;;;;300.38;120.47;;;12.80;99.90;;;;;;5096308;28;20035;-62
2022/12/10 00:16:38;;;;;;;277.55;112.65;;;12.70;99.90;;;;;;5096331;28;20478;-62
2022/12/10 00:19:04;;;;;;;243.90;105.93;;;12.70;99.90;;;;;;5096100;28;20206;-62
2022/12/10 00:21:32;;;;;;;244.35;104.63;;;12.60;99.90;;;;;;5096116;28;20465;-62
2022/12/10 00:24:00;;;;;;;276.85;113.90;;;12.50;99.90;;;;;;5096167;28;20041;-62
2022/12/10 00:26:27;;;;;;;285.23;116.82;;;12.50;99.90;;;;;;5096135;28;20380;-62
2022/12/10 00:28:53;;;;;;;283.10;113.25;;;12.40;99.90;;;;;;5096040;28;20038;-62
2022/12/10 00:31:27;;;;;;;249.73;102.80;;;12.40;99.90;;;;;;5077920;28;20031;-62
2022/12/10 00:33:59;;;;;;;270.67;100.32;;;12.40;99.90;;;;;;5095900;28;20031;-62
2022/12/10 00:36:28;;;;;;;302.45;120.07;;;12.30;99.90;;;;;;5077741;28;20060;-62
2022/12/10 00:38:54;;;;;;;354.70;136.65;;;12.30;99.90;;;;;;5095758;28;20530;-62
2022/12/10 00:41:21;;;;;;;428.52;163.85;;;12.30;99.90;;;;;;5095760;28;20020;-62
2022/12/10 00:43:47;;;;;;;401.25;152.32;;;12.20;99.90;;;;;;5077749;28;20557;-62
2022/12/10 00:46:15;;;;;;;361.30;142.82;;;12.20;99.90;;;;;;5095626;28;20024;-62
2022/12/10 00:48:42;;;;;;;358.23;144.10;;;12.10;99.90;;;;;;5077404;28;20028;-62
2022/12/10 00:51:12;;;;;;;374.17;156.95;;;12.10;99.90;;;;;;5081891;28;20077;-62
2022/12/10 00:53:40;;;;;;;415.40;169.32;;;12.10;99.90;;;;;;5075367;28;20051;-62
2022/12/10 00:56:07;;;;;;;399.27;165.02;;;12.10;99.90;;;;;;5075179;28;20097;-62
2022/12/10 00:58:34;;;;;;;357.52;143.75;;;12.10;99.90;;;;;;5075284;28;20039;-62
2022/12/10 01:01:21;;;;;;;305.58;125.95;;;12.00;99.90;;;;;;5074836;28;20029;-62
2022/12/10 01:03:50;;;;;;;206.90;85.15;;;11.90;99.90;;;;;;5074480;28;20086;-62
2022/12/10 01:06:19;;;;;;;204.88;87.43;;;11.80;99.90;;;;;;5057172;28;20020;-62
2022/12/10 01:08:46;;;;;;;280.45;111.13;;;11.70;99.90;;;;;;5058244;28;20506;-62
2022/12/10 01:11:14;;;;;;;294.27;112.80;;;11.70;99.90;;;;;;5094041;28;20507;-62
2022/12/10 01:13:41;;;;;;;282.92;116.13;;;11.60;99.90;;;;;;5077052;28;20519;-62
2022/12/10 01:16:09;;;;;;;282.55;116.70;;;11.60;99.90;;;;;;5076977;28;20059;-62
2022/12/10 01:18:35;;;;;;;310.23;138.30;;;11.60;99.90;;;;;;5076776;28;20040;-62
2022/12/10 01:21:10;;;;;;;298.15;129.77;;;11.50;99.90;;;;;;5095114;28;20545;-62
2022/12/10 01:23:39;;;;;;;273.15;116.47;;;11.50;99.90;;;;;;5094930;28;20031;-62
2022/12/10 01:26:08;;;;;;;218.07;94.57;;;11.40;99.90;;;;;;5094809;28;20047;-62
2022/12/10 01:28:36;;;;;;;217.63;94.78;;;11.50;99.90;;;;;;5076716;28;20505;-63
2022/12/10 01:31:10;;;;;;;233.18;103.85;;;11.50;99.90;;;;;;5076768;28;20448;-61
2022/12/10 01:33:37;;;;;;;244.20;110.00;;;11.50;99.90;;;;;;5094955;28;20045;-62
2022/12/10 01:36:15;;;;;;;269.92;123.07;;;11.50;99.90;;;;;;5094865;28;20032;-62
2022/12/10 01:38:43;;;;;;;267.08;122.57;;;11.40;99.90;;;;;;5094810;28;20161;-62
2022/12/10 01:41:18;;;;;;;216.20;102.13;;;11.40;99.90;;;;;;5094819;28;20028;-62
2022/12/10 01:43:49;;;;;;;225.07;106.20;;;11.30;99.90;;;;;;5076611;28;20039;-62
2022/12/10 01:46:15;;;;;;;235.05;109.38;;;11.30;99.90;;;;;;5095215;28;20028;-62
2022/12/10 01:48:42;;;;;;;250.18;115.18;;;11.30;99.90;;;;;;5094726;28;20020;-62
2022/12/10 01:51:08;;;;;;;271.27;121.97;;;11.30;99.90;;;;;;5080814;28;20532;-62
2022/12/10 01:53:34;;;;;;;387.67;152.25;;;11.30;99.90;;;;;;5056601;28;20020;-62
2022/12/10 01:56:01;;;;;;;404.80;158.32;;;11.20;99.90;;;;;;5074502;28;20382;-62
2022/12/10 01:58:27;;;;;;;325.27;133.95;;;11.10;99.90;;;;;;5074349;28;20036;-62
2022/12/10 02:01:08;;;;;;;240.30;105.35;;;11.10;99.90;;;;;;5056517;28;20028;-61
2022/12/10 02:03:41;;;;;;;214.70;94.57;;;11.10;99.90;;;;;;5074394;28;20032;-62
2022/12/10 02:06:24;;;;;;;202.00;88.80;;;11.10;99.90;;;;;;5056220;28;20401;-62
2022/12/10 02:09:08;;;;;;;209.50;94.03;;;11.10;99.90;;;;;;5076058;28;20111;-62
2022/12/10 02:11:46;;;;;;;203.05;89.53;;;11.10;99.90;;;;;;5076489;28;20024;-62
2022/12/10 02:14:41;;;;;;;201.30;88.65;;;11.10;99.90;;;;;;5094452;28;20050;-62
2022/12/10 02:17:17;;;;;;;194.65;83.75;;;11.10;99.90;;;;;;5080404;28;20054;-62
2022/12/10 02:19:49;;;;;;;187.80;86.03;;;11.00;99.90;;;;;;5098385;28;20044;-62
2022/12/10 02:22:19;;;;;;;181.15;78.95;;;11.00;99.90;;;;;;5080317;28;20490;-62
2022/12/10 02:24:48;;;;;;;179.63;77.88;;;10.90;99.90;;;;;;5098410;28;20020;-62
2022/12/10 02:27:56;;;;;;;200.73;90.07;;;10.80;99.90;;;;;;5080100;28;20458;-62
2022/12/10 02:30:22;;;;;;;283.50;114.55;;;10.80;99.90;;;;;;5080163;28;20469;-62
2022/12/10 02:32:50;;;;;;;310.63;126.65;;;10.80;99.90;;;;;;5080118;28;20021;-61
2022/12/10 02:35:29;;;;;;;302.55;118.75;;;10.70;99.90;;;;;;5080184;28;20431;-62
2022/12/10 02:38:05;;;;;;;263.67;108.13;;;10.80;99.90;;;;;;5098318;28;20028;-62
2022/12/10 02:40:34;;;;;;;248.15;103.22;;;10.70;99.90;;;;;;5080010;28;20036;-61
2022/12/10 02:43:02;;;;;;;240.40;99.15;;;10.70;99.90;;;;;;5079969;28;20123;-62
2022/12/10 02:45:30;;;;;;;280.35;111.15;;;10.70;99.90;;;;;;5098005;28;20035;-62
2022/12/10 02:47:59;;;;;;;424.90;147.32;;;10.70;99.90;;;;;;5079746;28;20032;-62
2022/12/10 02:50:34;;;;;;;434.85;150.68;;;10.60;99.90;;;;;;5071004;28;20359;-62
2022/12/10 02:53:02;;;;;;;440.08;151.80;;;10.70;99.90;;;;;;5059888;28;20090;-62
2022/12/10 02:55:39;;;;;;;303.15;117.22;;;10.60;99.90;;;;;;5059654;28;20037;-62
2022/12/10 02:58:34;;;;;;;267.58;99.88;;;10.60;99.90;;;;;;5077735;28;20502;-62
2022/12/10 03:01:33;;;;;;;216.05;85.05;;;10.60;99.90;;;;;;5039044;28;20044;-62
2022/12/10 03:04:06;;;;;;;180.98;74.18;;;10.60;99.90;;;;;;5026418;28;20048;-62
2022/12/10 03:06:45;;;;;;;214.57;81.85;;;10.60;99.90;;;;;;5077619;28;20021;-62
2022/12/10 03:09:30;;;;;;;216.27;81.35;;;10.70;99.90;;;;;;5082102;28;20032;-62
2022/12/10 03:12:10;;;;;;;158.95;67.65;;;10.70;99.90;;;;;;5097735;28;20028;-62
2022/12/10 03:14:37;;;;;;;168.67;71.30;;;10.70;99.90;;;;;;5097628;28;20119;-61
2022/12/10 03:17:04;;;;;;;165.40;69.20;;;10.70;99.90;;;;;;5097508;28;20032;-62
2022/12/10 03:19:37;;;;;;;128.38;54.92;;;10.70;99.90;;;;;;5097363;28;20044;-62
2022/12/10 03:22:05;;;;;;;105.43;47.95;;;10.70;99.90;;;;;;5097521;28;20190;-62
2022/12/10 03:24:34;;;;;;;102.43;47.47;;;10.70;99.90;;;;;;5097335;28;20035;-62
2022/12/10 03:27:03;;;;;;;107.88;48.80;;;10.80;99.90;;;;;;5078693;28;20036;-62
2022/12/10 03:29:36;;;;;;;99.30;45.15;;;10.80;99.90;;;;;;5097522;28;20028;-62
2022/12/10 03:32:02;;;;;;;95.05;41.67;;;10.80;99.90;;;;;;5097243;28;20386;-62
2022/12/10 03:34:28;;;;;;;97.72;44.88;;;10.80;99.90;;;;;;5097186;28;20024;-62
2022/12/10 03:36:55;;;;;;;103.78;47.85;;;10.80;99.90;;;;;;5097081;28;20032;-61
2022/12/10 03:39:22;;;;;;;103.68;46.17;;;10.80;99.90;;;;;;5096971;28;20098;-62
2022/12/10 03:41:48;;;;;;;112.75;47.83;;;10.80;99.90;;;;;;5097046;28;20081;-61
2022/12/10 03:44:26;;;;;;;135.98;59.85;;;10.80;99.90;;;;;;5096916;28;20028;-62
2022/12/10 03:46:52;;;;;;;133.20;57.78;;;10.70;99.90;;;;;;5096879;28;20099;-62
2022/12/10 03:49:17;;;;;;;123.65;55.55;;;10.60;99.90;;;;;;5096988;28;20055;-61
2022/12/10 03:51:43;;;;;;;101.20;46.53;;;10.50;99.90;;;;;;5078030;28;20115;-62
2022/12/10 03:54:09;;;;;;;99.03;45.60;;;10.50;99.90;;;;;;5076609;28;20064;-62
2022/12/10 03:56:35;;;;;;;94.90;45.78;;;10.50;99.90;;;;;;5076546;28;20021;-62
2022/12/10 03:59:01;;;;;;;90.35;42.22;;;10.50;99.90;;;;;;5076456;28;20036;-61
2022/12/10 04:01:27;;;;;;;96.90;41.30;;;10.50;99.90;;;;;;5076491;28;20139;-62
2022/12/10 04:03:53;;;;;;;77.03;37.45;;;10.50;99.90;;;;;;5076415;28;20115;-62
2022/12/10 04:06:20;;;;;;;69.43;36.42;;;10.50;99.90;;;;;;5076193;28;20036;-61
2022/12/10 04:08:47;;;;;;;73.60;36.58;;;10.60;99.90;;;;;;5077476;28;20028;-62
2022/12/10 04:11:14;;;;;;;92.03;42.40;;;10.50;99.90;;;;;;5096674;28;20099;-62
2022/12/10 04:16:26;;;;;;;95.15;41.22;;;10.40;99.90;;;;;;5096432;28;20028;-62
2022/12/10 04:18:53;;;;;;;77.68;37.33;;;10.40;99.90;;;;;;5096133;28;20070;-62
2022/12/10 04:26:55;;;;;;;92.80;44.50;;;10.40;99.90;;;;;;5096251;28;20032;-61
2022/12/10 04:29:29;;;;;;;92.50;44.67;;;10.40;99.90;;;;;;5095988;28;20020;-61
2022/12/10 04:31:56;;;;;;;144.77;66.50;;;10.40;99.90;;;;;;5095912;28;20103;-61
2022/12/10 04:34:23;;;;;;;210.93;82.78;;;10.40;99.90;;;;;;5095874;28;20020;-61
2022/12/10 04:36:49;;;;;;;169.63;66.28;;;10.50;99.90;;;;;;5095996;28;20058;-62
2022/12/10 04:39:16;;;;;;;169.90;66.55;;;10.40;99.90;;;;;;5095059;28;20028;-62
2022/12/10 04:41:43;;;;;;;181.68;70.78;;;10.50;99.90;;;;;;5096323;28;20028;-62
2022/12/10 04:44:10;;;;;;;272.45;99.10;;;10.50;99.90;;;;;;5095669;28;20085;-62
2022/12/10 04:46:36;;;;;;;200.85;78.05;;;10.50;99.90;;;;;;5095857;28;20028;-62
2022/12/10 04:49:03;;;;;;;228.50;84.10;;;10.50;99.90;;;;;;5095780;28;20027;-61
2022/12/10 04:51:29;;;;;;;199.50;78.60;;;10.50;99.90;;;;;;5060984;28;20035;-61
2022/12/10 04:53:55;;;;;;;206.68;81.90;;;10.60;99.90;;;;;;5075295;28;20025;-62
2022/12/10 04:56:21;;;;;;;159.50;64.68;;;10.60;99.90;;;;;;5075145;28;20029;-62
2022/12/10 04:58:47;;;;;;;121.80;48.78;;;10.60;99.90;;;;;;5075248;28;20024;-62
2022/12/10 05:01:13;;;;;;;105.97;45.70;;;10.60;99.90;;;;;;5075199;28;20020;-62
2022/12/10 05:03:40;;;;;;;121.45;50.20;;;10.60;99.90;;;;;;5075095;28;20107;-62
2022/12/10 05:06:12;;;;;;;130.00;51.95;;;10.60;99.90;;;;;;5074969;28;20467;-61
2022/12/10 05:08:39;;;;;;;102.25;43.30;;;10.70;99.90;;;;;;5075384;28;20035;-62
2022/12/10 05:11:09;;;;;;;101.22;41.75;;;10.70;99.90;;;;;;5095134;28;20016;-62
2022/12/10 05:13:35;;;;;;;95.72;43.80;;;10.70;99.90;;;;;;5095265;28;20024;-62
2022/12/10 05:16:02;;;;;;;92.97;45.53;;;10.70;99.90;;;;;;5095315;28;20035;-62
2022/12/10 05:18:28;;;;;;;102.68;44.28;;;10.70;99.90;;;;;;5094896;28;20036;-62
2022/12/10 05:20:57;;;;;;;125.97;51.33;;;10.70;99.90;;;;;;5095189;28;20036;-62
2022/12/10 05:23:29;;;;;;;166.07;66.75;;;10.80;99.90;;;;;;5094922;28;20020;-61
2022/12/10 05:26:04;;;;;;;166.10;65.32;;;10.80;99.90;;;;;;5095061;28;20466;-62
2022/12/10 05:28:32;;;;;;;159.70;62.28;;;10.80;99.90;;;;;;5094957;28;20504;-62
2022/12/10 05:30:59;;;;;;;118.60;51.63;;;10.80;99.90;;;;;;5094759;28;20024;-62
2022/12/10 05:33:26;;;;;;;97.78;48.03;;;10.80;99.90;;;;;;5094939;28;20047;-62
2022/12/10 05:35:54;;;;;;;82.90;40.17;;;10.90;99.90;;;;;;5095242;28;20032;-62
2022/12/10 05:38:21;;;;;;;99.80;45.50;;;10.90;99.90;;;;;;5094831;28;20335;-62
2022/12/10 05:40:47;;;;;;;97.22;42.92;;;11.00;99.90;;;;;;5094951;28;20031;-62
2022/12/10 05:43:13;;;;;;;110.60;44.83;;;10.90;99.90;;;;;;5094789;28;20093;-62
2022/12/10 05:45:39;;;;;;;90.53;42.60;;;10.90;99.90;;;;;;5094740;28;20104;-62
2022/12/10 05:48:05;;;;;;;110.47;47.28;;;10.90;99.90;;;;;;5094831;28;20374;-61
2022/12/10 05:50:31;;;;;;;103.75;44.28;;;11.00;99.90;;;;;;5086397;28;20024;-62
2022/12/10 05:52:58;;;;;;;106.78;44.78;;;10.90;99.90;;;;;;5074387;28;20511;-62
2022/12/10 05:55:24;;;;;;;117.30;49.05;;;10.90;99.90;;;;;;5074501;28;20082;-61
2022/12/10 05:57:50;;;;;;;101.80;42.85;;;10.90;99.90;;;;;;5074637;28;20086;-62
2022/12/10 06:00:16;;;;;;;112.47;47.15;;;11.00;99.90;;;;;;5074379;28;20025;-62
2022/12/10 06:02:42;;;;;;;173.57;66.07;;;11.00;99.90;;;;;;5056512;28;20040;-62
2022/12/10 06:05:08;;;;;;;144.65;61.78;;;11.00;99.90;;;;;;5074194;28;20374;-62
2022/12/10 06:07:35;;;;;;;164.07;63.92;;;10.90;99.90;;;;;;5074582;28;20055;-62
2022/12/10 06:10:01;;;;;;;146.55;58.22;;;10.90;99.90;;;;;;5086168;28;20016;-62
2022/12/10 06:12:27;;;;;;;141.75;58.15;;;10.90;99.90;;;;;;5094584;28;20028;-62
2022/12/10 06:14:53;;;;;;;124.20;52.88;;;10.90;99.90;;;;;;5094450;28;20020;-62
2022/12/10 06:17:18;;;;;;;125.07;53.78;;;10.90;99.90;;;;;;5094903;28;20468;-62
2022/12/10 06:19:44;;;;;;;129.52;58.35;;;10.90;99.90;;;;;;5094301;28;20479;-62
2022/12/10 06:22:11;;;;;;;87.25;41.17;;;11.00;99.90;;;;;;5094540;28;20028;-62
2022/12/10 06:24:36;;;;;;;87.22;40.08;;;11.00;99.90;;;;;;5094432;28;20035;-62
2022/12/10 06:27:03;;;;;;;109.95;52.17;;;11.00;99.90;;;;;;5094469;28;20047;-62
2022/12/10 06:29:29;;;;;;;96.03;45.22;;;11.00;99.90;;;;;;5094371;28;20229;-62
2022/12/10 06:31:55;;;;;;;75.47;37.20;;;11.10;99.90;;;;;;5094333;28;20056;-62
2022/12/10 06:34:22;;;;;;;67.10;31.52;;;11.00;99.90;;;;;;5094307;28;20035;-62
2022/12/10 06:36:48;;;;;;;55.55;27.00;;;11.00;99.90;;;;;;5094360;28;20024;-62
2022/12/10 06:39:14;;;;;;;72.55;31.02;;;11.00;99.90;;;;;;5094318;28;20026;-62
2022/12/10 06:41:43;;;;;;;54.65;27.73;;;10.90;99.90;;;;;;5094262;28;20032;-62
2022/12/10 06:44:10;;;;;;;82.70;39.38;;;11.00;99.90;;;;;;5094147;28;20028;-62
2022/12/10 06:46:36;;;;;;;68.47;34.10;;;11.10;99.90;;;;;;5094295;28;20048;-62
2022/12/10 06:49:03;;;;;;;73.55;34.17;;;11.10;99.90;;;;;;5094186;28;20386;-62
2022/12/10 06:51:29;;;;;;;58.97;23.92;;;11.20;99.90;;;;;;5077564;28;20028;-62
2022/12/10 06:53:55;;;;;;;54.03;23.17;;;11.20;99.90;;;;;;5073998;28;20468;-62
2022/12/10 06:56:22;;;;;;;66.90;26.85;;;11.30;99.90;;;;;;5073918;28;20594;-62
2022/12/10 06:58:48;;;;;;;55.72;23.67;;;11.30;99.90;;;;;;5074003;28;20024;-62
2022/12/10 07:01:22;;;;;;;42.35;20.50;;;11.40;99.90;;;;;;5074808;28;20028;-62
2022/12/10 07:03:55;;;;;;;63.78;28.35;;;11.40;99.90;;;;;;5077496;28;20020;-62
2022/12/10 07:06:23;;;;;;;68.57;32.38;;;11.40;99.90;;;;;;5059315;28;20116;-62
2022/12/10 07:08:49;;;;;;;58.22;28.38;;;11.40;99.90;;;;;;5079147;28;20398;-62
2022/12/10 07:11:20;;;;;;;64.57;28.33;;;11.40;99.90;;;;;;5097725;28;20097;-62
2022/12/10 07:13:46;;;;;;;71.32;32.40;;;11.50;99.90;;;;;;5097636;28;20023;-62
2022/12/10 07:16:21;;;;;;;54.53;25.55;;;11.50;99.90;;;;;;5097332;28;20032;-62
2022/12/10 07:18:48;;;;;;;50.97;24.55;;;11.60;99.90;;;;;;5097332;28;20064;-62
2022/12/10 07:21:21;;;;;;;62.47;30.45;;;11.50;99.90;;;;;;5097466;28;20081;-62
2022/12/10 07:23:48;;;;;;;44.78;23.02;;;11.60;99.90;;;;;;5097529;28;20036;-62
2022/12/10 07:26:14;;;;;;;41.97;21.02;;;11.60;99.90;;;;;;5097257;28;20020;-62
2022/12/10 07:28:40;;;;;;;42.60;21.70;;;11.70;99.90;;;;;;5097015;28;20542;-62
2022/12/10 07:31:08;;;;;;;47.10;22.58;;;11.70;99.90;;;;;;5097299;28;20028;-62
2022/12/10 07:33:34;;;;;;;47.75;24.05;;;11.80;99.90;;;;;;5097222;28;20024;-62
2022/12/10 07:36:07;;;;;;;65.20;31.48;;;11.80;99.90;;;;;;5097162;28;20162;-61
2022/12/10 07:38:33;;;;;;;55.40;25.25;;;11.80;99.90;;;;;;5079076;28;20032;-62
2022/12/10 07:41:03;;;;;;;707.92;155.50;;;11.90;99.90;;;;;;5096972;28;20021;-62
2022/12/10 07:43:29;;;;;;;273.00;74.22;;;12.00;99.90;;;;;;5097034;28;20538;-62
2022/12/10 07:45:55;;;;;;;108.18;44.85;;;12.10;99.90;;;;;;5096846;28;20130;-62
2022/12/10 07:48:21;;;;;;;87.97;42.88;;;12.20;99.90;;;;;;5096791;28;20020;-62
2022/12/10 07:50:54;;;;;;;61.85;28.88;;;12.30;99.90;;;;;;5085970;28;20032;-62
2022/12/10 07:53:20;;;;;;;35.60;20.98;;;12.50;99.90;;;;;;5076567;28;20032;-62
2022/12/10 07:55:46;;;;;;;48.17;22.05;;;12.60;99.90;;;;;;5076413;28;20036;-62
2022/12/10 07:58:12;;;;;;;41.75;21.02;;;12.70;99.90;;;;;;5076454;28;20115;-62
2022/12/10 08:00:38;;;;;;;46.00;22.48;;;12.80;99.90;;;;;;5076513;28;20036;-63
2022/12/10 08:03:04;;;;;;;43.50;21.75;;;13.00;99.90;;;;;;5076441;28;20032;-62
2022/12/10 08:05:30;;;;;;;49.75;25.33;;;13.40;99.90;;;;;;5076241;28;20024;-62
2022/12/10 08:07:56;;;;;;;48.20;25.70;;;13.90;99.90;;;;;;5076183;28;20124;-62
2022/12/10 08:10:22;;;;;;;49.90;23.83;;;14.40;99.90;;;;;;5090895;28;20028;-62
2022/12/10 08:12:48;;;;;;;47.47;21.90;;;15.20;99.90;;;;;;5095420;28;20032;-63
2022/12/10 08:15:14;;;;;;;40.55;19.45;;;15.80;99.90;;;;;;5096568;28;20028;-63
2022/12/10 08:17:40;;;;;;;38.33;17.42;;;16.50;99.90;;;;;;5096418;28;20040;-63
2022/12/10 08:20:07;;;;;;;37.83;17.08;;;17.60;99.90;;;;;;5096286;28;20048;-63
2022/12/10 08:22:35;;;;;;;44.22;17.77;;;17.90;99.90;;;;;;5096201;28;20131;-63
2022/12/10 08:25:01;;;;;;;33.70;15.38;;;17.80;99.90;;;;;;5096204;28;20404;-63
2022/12/10 08:27:27;;;;;;;38.63;18.65;;;17.40;99.90;;;;;;5096301;28;20081;-63
2022/12/10 08:29:53;;;;;;;36.28;16.40;;;17.20;99.90;;;;;;5096150;28;20030;-63
2022/12/10 08:32:19;;;;;;;43.95;15.90;;;16.60;99.90;;;;;;5096069;28;20542;-63
2022/12/10 08:34:45;;;;;;;44.30;16.42;;;16.40;99.90;;;;;;5096114;28;20379;-63
2022/12/10 08:37:11;;;;;;;35.75;16.27;;;16.50;99.90;;;;;;5095849;28;20051;-63
2022/12/10 08:39:37;;;;;;;42.55;16.88;;;16.30;99.90;;;;;;5096022;28;20482;-63
2022/12/10 08:42:03;;;;;;;38.22;16.40;;;16.40;99.90;;;;;;5096008;28;20035;-63
2022/12/10 08:44:29;;;;;;;46.35;17.77;;;16.40;99.90;;;;;;5095747;28;20221;-63
2022/12/10 08:46:55;;;;;;;31.50;16.23;;;16.40;99.90;;;;;;5095814;28;20485;-63
2022/12/10 08:49:20;;;;;;;38.22;15.55;;;16.20;99.90;;;;;;5095924;28;20354;-63
2022/12/10 08:51:46;;;;;;;33.33;16.35;;;16.10;99.90;;;;;;5076467;28;20047;-64
2022/12/10 08:54:12;;;;;;;39.78;15.65;;;16.20;99.90;;;;;;5075491;28;20016;-63
2022/12/10 08:56:39;;;;;;;30.48;15.07;;;16.10;99.90;;;;;;5075437;28;20383;-64
2022/12/10 08:59:06;;;;;;;29.90;14.77;;;15.90;99.90;;;;;;5075399;28;20036;-63
2022/12/10 09:01:32;;;;;;;27.42;14.13;;;15.90;99.90;;;;;;5075229;28;20068;-63
2022/12/10 09:03:59;;;;;;;40.33;16.48;;;15.80;99.90;;;;;;5075345;28;20033;-63
2022/12/10 09:06:25;;;;;;;31.95;15.48;;;15.80;99.90;;;;;;5074833;28;20036;-63
2022/12/10 09:08:51;;;;;;;37.60;17.98;;;15.70;99.90;;;;;;5059045;28;20032;-63
2022/12/10 09:11:27;;;;;;;47.58;23.75;;;15.70;99.90;;;;;;5095438;28;20087;-63
2022/12/10 09:13:53;;;;;;;43.53;20.65;;;15.70;99.90;;;;;;5095209;28;20024;-63
2022/12/10 09:16:27;;;;;;;52.08;25.05;;;15.80;99.90;;;;;;5095301;28;20035;-63
2022/12/10 09:18:53;;;;;;;21.60;11.50;;;16.10;99.90;;;;;;5095001;28;20044;-63
2022/12/10 09:21:20;;;;;;;33.78;13.93;;;16.00;99.90;;;;;;5095290;28;20031;-63
2022/12/10 09:23:46;;;;;;;32.65;11.65;;;15.90;99.90;;;;;;5094802;28;20035;-63
2022/12/10 09:26:15;;;;;;;30.73;12.40;;;16.00;99.90;;;;;;5094997;28;20481;-63
2022/12/10 09:28:42;;;;;;;28.52;13.25;;;16.00;99.90;;;;;;5094979;28;20082;-63
2022/12/10 09:31:08;;;;;;;22.15;9.23;;;16.10;99.90;;;;;;5095032;28;20120;-63
2022/12/10 09:33:35;;;;;;;30.02;10.45;;;16.10;99.90;;;;;;5094842;28;20024;-64
2022/12/10 09:36:06;;;;;;;26.67;10.38;;;16.00;99.90;;;;;;5095044;28;20546;-64
2022/12/10 09:38:37;;;;;;;17.58;7.60;;;16.10;99.90;;;;;;5095052;28;20060;-63
2022/12/10 09:41:16;;;;;;;25.48;10.00;;;16.10;99.90;;;;;;5094905;28;20077;-64
2022/12/10 09:43:55;;;;;;;44.47;11.57;;;16.10;99.90;;;;;;5094882;28;20465;-64
2022/12/10 09:46:31;;;;;;;33.28;12.88;;;16.30;99.90;;;;;;5094692;28;20465;-63
2022/12/10 09:49:33;;;;;;;24.98;11.95;;;16.60;99.90;;;;;;5094762;28;20024;-64
2022/12/10 09:52:02;;;;;;;25.27;12.07;;;17.00;99.90;;;;;;5054525;28;20049;-63
2022/12/10 09:54:32;;;;;;;41.33;13.43;;;17.30;99.80;;;;;;5054342;28;20028;-64
2022/12/10 09:57:00;;;;;;;21.10;11.13;;;17.30;98.70;;;;;;5054336;28;20116;-64
2022/12/10 09:59:41;;;;;;;28.30;12.10;;;17.90;98.70;;;;;;5054468;28;20064;-64
2022/12/10 10:02:27;;;;;;;26.77;12.90;;;18.90;96.20;;;;;;5054407;28;20025;-64
2022/12/10 10:05:20;;;;;;;29.65;13.05;;;19.10;91.20;;;;;;5054169;28;20035;-64
2022/12/10 10:07:50;;;;;;;28.13;13.77;;;19.10;91.30;;;;;;5054284;28;20040;-64
2022/12/10 10:10:24;;;;;;;26.50;10.52;;;19.30;90.80;;;;;;5081822;28;20378;-64
2022/12/10 10:12:57;;;;;;;18.75;8.30;;;19.20;88.50;;;;;;5094590;28;20225;-64
2022/12/10 10:15:30;;;;;;;21.33;8.88;;;19.10;89.60;;;;;;5094360;28;20024;-64
2022/12/10 10:18:02;;;;;;;18.02;7.63;;;19.00;89.00;;;;;;5094491;28;20032;-64
2022/12/10 10:20:29;;;;;;;16.02;6.35;;;18.80;89.60;;;;;;5094286;28;20509;-64
2022/12/10 10:22:58;;;;;;;16.60;6.93;;;18.70;89.40;;;;;;5094368;28;20031;-64
2022/12/10 10:25:24;;;;;;;21.90;5.95;;;18.60;90.00;;;;;;5076223;28;20028;-64
2022/12/10 10:27:50;;;;;;;12.32;6.90;;;18.70;89.60;;;;;;5094484;28;20589;-64
2022/12/10 10:30:19;;;;;;;21.88;9.73;;;18.50;90.30;;;;;;5094411;28;20481;-64
2022/12/10 10:32:54;;;;;;;17.27;8.13;;;18.30;90.60;;;;;;5094274;28;20075;-64
2022/12/10 10:35:26;;;;;;;13.10;6.68;;;18.30;90.30;;;;;;5094345;28;20470;-64
2022/12/10 10:37:58;;;;;;;16.60;5.35;;;18.30;91.10;;;;;;5097962;28;20084;-64
2022/12/10 10:40:26;;;;;;;15.77;4.50;;;18.20;91.50;;;;;;5098218;28;20024;-64
2022/12/10 10:42:55;;;;;;;10.15;4.32;;;18.10;90.70;;;;;;5098260;28;20050;-64
2022/12/10 10:45:41;;;;;;;18.17;5.88;;;18.00;90.10;;;;;;5098184;28;20039;-64
2022/12/10 10:48:19;;;;;;;15.00;4.88;;;17.80;90.50;;;;;;5098009;28;20104;-64
2022/12/10 10:50:52;;;;;;;10.80;4.90;;;17.90;91.50;;;;;;5087465;28;20031;-64
2022/12/10 10:53:30;;;;;;;15.50;4.65;;;17.80;91.20;;;;;;5077664;28;20076;-64
2022/12/10 10:56:08;;;;;;;11.00;4.47;;;17.90;91.60;;;;;;5077718;28;20040;-64
2022/12/10 10:58:34;;;;;;;13.57;5.43;;;18.00;91.70;;;;;;5077654;28;20382;-64
2022/12/10 11:01:03;;;;;;;13.13;5.93;;;18.00;92.30;;;;;;5077493;28;20529;-64
2022/12/10 11:03:32;;;;;;;18.10;5.13;;;18.10;92.20;;;;;;5059642;28;20029;-64
2022/12/10 11:05:59;;;;;;;13.60;5.63;;;18.00;90.60;;;;;;5077351;28;20035;-64
2022/12/10 11:08:29;;;;;;;12.27;6.20;;;18.00;91.40;;;;;;5077432;28;20028;-64
2022/12/10 11:11:03;;;;;;;14.60;7.03;;;18.00;92.10;;;;;;5096775;28;20100;-64
2022/12/10 11:13:32;;;;;;;23.38;9.80;;;18.00;91.60;;;;;;5097436;28;20549;-64
2022/12/10 11:16:24;;;;;;;20.90;7.63;;;18.10;91.40;;;;;;5097555;28;20032;-64
2022/12/10 11:19:02;;;;;;;25.48;7.60;;;18.30;90.60;;;;;;5092623;28;20050;-64
2022/12/10 11:21:29;;;;;;;16.40;7.00;;;18.30;90.20;;;;;;5097524;28;20028;-64
2022/12/10 11:23:56;;;;;;;24.65;8.30;;;18.40;91.00;;;;;;5097385;28;20055;-64
2022/12/10 11:27:01;;;;;;;18.02;7.47;;;18.50;90.10;;;;;;5097324;28;20032;-64
2022/12/10 11:29:31;;;;;;;33.42;9.50;;;18.50;90.00;;;;;;5097249;28;20024;-64
2022/12/10 11:32:15;;;;;;;15.25;6.53;;;18.60;91.10;;;;;;5097322;28;20035;-64
2022/12/10 11:34:56;;;;;;;17.23;7.40;;;18.80;89.10;;;;;;5097265;28;20504;-64
2022/12/10 11:37:47;;;;;;;17.98;7.68;;;18.80;90.20;;;;;;5097209;28;20105;-64
2022/12/10 11:40:38;;;;;;;32.90;9.32;;;18.80;90.30;;;;;;5097108;28;20082;-64
2022/12/10 11:43:12;;;;;;;24.52;7.53;;;18.90;88.40;;;;;;5097116;28;20081;-64
2022/12/10 11:45:41;;;;;;;15.73;7.28;;;18.60;88.50;;;;;;5096933;28;20127;-64
2022/12/10 11:48:28;;;;;;;27.50;8.80;;;18.80;88.60;;;;;;5096526;28;20016;-64
2022/12/10 11:51:07;;;;;;;20.50;8.10;;;18.90;89.20;;;;;;5085070;28;20052;-64
2022/12/10 11:53:47;;;;;;;24.17;8.13;;;18.90;89.00;;;;;;5076694;28;20028;-64
2022/12/10 11:56:38;;;;;;;25.33;8.55;;;18.80;88.70;;;;;;5076616;28;20035;-64
2022/12/10 11:59:26;;;;;;;33.15;10.70;;;18.70;87.80;;;;;;5076473;28;20094;-64
2022/12/10 12:02:29;;;;;;;23.45;9.07;;;18.50;89.40;;;;;;5076756;28;20435;-64
2022/12/10 12:04:57;;;;;;;20.63;10.40;;;18.40;90.50;;;;;;4987213;28;20473;-64
2022/12/10 12:07:36;;;;;;;30.27;10.73;;;18.30;91.00;;;;;;5076244;28;20028;-64
2022/12/10 12:10:34;;;;;;;27.50;9.98;;;18.20;91.00;;;;;;5088108;28;20111;-64
2022/12/10 12:13:27;;;;;;;31.95;10.88;;;17.90;91.10;;;;;;5096459;28;20028;-64
2022/12/10 12:16:02;;;;;;;29.02;11.23;;;17.80;91.40;;;;;;5096330;28;20029;-64
2022/12/10 12:18:44;;;;;;;24.10;10.80;;;17.80;91.40;;;;;;5096132;28;20111;-64
2022/12/10 12:21:13;;;;;;;46.08;14.75;;;17.60;92.50;;;;;;5096376;28;20026;-64
2022/12/10 12:23:48;;;;;;;59.65;23.42;;;17.50;92.50;;;;;;5096209;28;20108;-64
2022/12/10 12:26:31;;;;;;;43.72;19.77;;;17.40;92.80;;;;;;5096157;28;20107;-64
2022/12/10 12:29:23;;;;;;;39.90;16.05;;;17.30;92.80;;;;;;5096250;28;20028;-64
2022/12/10 12:32:09;;;;;;;31.48;12.07;;;17.20;93.20;;;;;;5084930;28;20537;-64
2022/12/10 12:34:47;;;;;;;31.08;11.00;;;17.10;93.70;;;;;;5096004;28;20028;-64
2022/12/10 12:37:16;;;;;;;25.15;12.10;;;17.10;93.70;;;;;;5095968;28;20030;-64
2022/12/10 12:39:50;;;;;;;29.55;13.63;;;17.00;94.20;;;;;;5095861;28;20494;-64
2022/12/10 12:42:30;;;;;;;30.42;13.52;;;17.00;94.60;;;;;;5095935;28;20028;-64
2022/12/10 12:45:31;;;;;;;42.85;18.63;;;16.90;94.90;;;;;;5095760;28;20121;-64
2022/12/10 12:48:19;;;;;;;43.83;18.55;;;16.80;95.60;;;;;;5023049;28;20127;-64
2022/12/10 12:51:14;;;;;;;51.30;25.52;;;16.70;96.80;;;;;;5085134;28;20020;-64